This is the latest recevied weather packets stored in our database for station/object KL1SF-7. If no packets are shown the sender has not sent any weather packets the latest 1 day(s).
| Time | Temp. | Humidity | Pressure | Rain* | Wind** | Luminosity | Snow |
|---|---|---|---|---|---|---|---|
| 1778085815 | 12.78° C | 31% | 1018.1 hPa | 0 mm | - | - | - |
| 1778084002 | 12.22° C | 31% | 1017.7 hPa | 0 mm | - | - | - |
| 1778083415 | 12.22° C | 33% | 1017.8 hPa | 0 mm | - | - | - |
| 1778082205 | 11.11° C | 35% | 1017.4 hPa | 0 mm | - | - | - |
| 1778081003 | 10° C | 37% | 1017.9 hPa | 0 mm | - | - | - |
| 1778079207 | 8.33° C | 46% | 1017.5 hPa | 0 mm | - | - | - |
| 1778075620 | 3.33° C | 61% | 1017 hPa | 0 mm | - | - | - |
| 1778075010 | 2.78° C | 65% | 1017 hPa | 0 mm | - | - | - |
| 1778073807 | 1.67° C | 67% | 1016.9 hPa | 0 mm | - | - | - |
| 1778070817 | 1.11° C | 68% | 1016.5 hPa | 0 mm | - | - | - |
| 1778069020 | 1.67° C | 67% | 1016 hPa | 0 mm | - | - | - |
| 1778067811 | 1.67° C | 67% | 1015.8 hPa | 0 mm | - | - | - |
| 1778066608 | 1.11° C | 67% | 1015.7 hPa | 0 mm | - | - | - |
| 1778066018 | 1.11° C | 68% | 1015.7 hPa | 0 mm | - | - | - |
| 1778064811 | 1.67° C | 68% | 1015.6 hPa | 0 mm | - | - | - |
| 1778063001 | 2.22° C | 67% | 1015.4 hPa | 0 mm | - | - | - |
| 1778060617 | 1.67° C | 70% | 1014.9 hPa | 0 mm | - | - | - |
| 1778060029 | 1.11° C | 71% | 1015.2 hPa | 0 mm | - | - | - |
| 1778058216 | 1.67° C | 71% | 1014.9 hPa | 0 mm | - | - | - |
| 1778057620 | 1.67° C | 71% | 1014.8 hPa | 0 mm | - | - | - |
| 1778057009 | 1.67° C | 72% | 1014.8 hPa | 0 mm | - | - | - |
| 1778056421 | 2.22° C | 71% | 1014.9 hPa | 0 mm | - | - | - |
| 1778054010 | 2.78° C | 69% | 1015.2 hPa | 0 mm | - | - | - |
| 1778052220 | 3.33° C | 71% | 1015.6 hPa | 0 mm | - | - | - |
| 1778051610 | 3.33° C | 72% | 1015.6 hPa | 0 mm | - | - | - |
* Rain since midnight (hover to see other rain measurements)
** Current wind speed in m/s (hover to see current wind gust speed)